Flugplatz Ahrenlohe

Für EDHO sind keine METAR/TAF Berichte vorhanden.
Es werden die Flugwettermeldungen vom Flugplatz Hamburg in 18 km Entfernung angezeigt.

Bericht für EDDH

vom 18.07. um 00:20 UTC

variable Windrichtung mit 1 kt

Sichtweite 10 km oder mehr

Nebelschwaden

keine Wolken

Temperatur 12.0°C

Taupunkt 11.0°C

Luftfeuchtigkeit 94%

Luftdruck 1013 hPa

keine wesentliche Wetteränderung innerhalb den nächsten 2 Stunden zu erwarten

EDDH 180020Z VRB01KT 9999 2000NW R15/0900VP2000U BCFG NSC 12/11 Q1013 NOSIG

Prognose für EDDH

vom 17.07. um 00:00 UTC

Zwischen 00:00 UTC und 00:00 UTC

variable Windrichtung mit 2 kt

Sichtweite 10 km oder mehr

keine signifikanten Wettererscheinungen

keine Wolken


Zwischen 00:00 UTC und 00:00 UTC zeitweise mit einer Wahrscheinlichkeit von 30%

Sichtweite 3000 m

Nebelschwaden


Zwischen 00:00 und 00:00 UTC übergehend zu

Wind 6 kt aus 160°

Sichtweite 10 km oder mehr

keine signifikanten Wettererscheinungen

keine Wolken


Zwischen 00:00 UTC und 00:00 UTC zeitweise mit einer Wahrscheinlichkeit von 30%

Regenschauer

aufgebrochene Bewölkung in 4000 ft

TAF EDDH 172300Z 1800/1906 VRB02KT CAVOK PROB30 TEMPO 1802/1804 3000 BCFG BECMG 1805/1807 16006KT PROB30 TEMPO 1822/1901 SHRA BKN040CB
Impressum